sensor_id;sensor_type;location;lat;lon;timestamp;temperature;humidity
35299;DHT22;21415;48.054;16.646;2022-09-01T00:00:45;23.30;49.60
35299;DHT22;21415;48.054;16.646;2022-09-01T00:03:17;23.30;49.80
35299;DHT22;21415;48.054;16.646;2022-09-01T00:05:44;23.20;50.20
35299;DHT22;21415;48.054;16.646;2022-09-01T00:08:12;23.20;49.60
35299;DHT22;21415;48.054;16.646;2022-09-01T00:10:38;23.20;49.70
35299;DHT22;21415;48.054;16.646;2022-09-01T00:13:04;23.10;49.60
35299;DHT22;21415;48.054;16.646;2022-09-01T00:15:33;23.10;49.60
35299;DHT22;21415;48.054;16.646;2022-09-01T00:17:59;23.10;49.40
35299;DHT22;21415;48.054;16.646;2022-09-01T00:20:25;23.10;49.40
35299;DHT22;21415;48.054;16.646;2022-09-01T00:22:50;23.10;49.50
35299;DHT22;21415;48.054;16.646;2022-09-01T00:25:18;23.00;49.50
35299;DHT22;21415;48.054;16.646;2022-09-01T00:27:45;23.00;49.60
35299;DHT22;21415;48.054;16.646;2022-09-01T00:30:11;22.90;49.60
35299;DHT22;21415;48.054;16.646;2022-09-01T00:32:37;22.90;49.60
35299;DHT22;21415;48.054;16.646;2022-09-01T00:35:04;22.80;49.60
35299;DHT22;21415;48.054;16.646;2022-09-01T00:37:30;22.80;49.70
35299;DHT22;21415;48.054;16.646;2022-09-01T00:39:56;22.80;49.70
35299;DHT22;21415;48.054;16.646;2022-09-01T00:42:22;22.70;49.70
35299;DHT22;21415;48.054;16.646;2022-09-01T00:44:48;22.70;49.80
35299;DHT22;21415;48.054;16.646;2022-09-01T00:47:14;22.70;49.80
35299;DHT22;21415;48.054;16.646;2022-09-01T00:49:42;22.60;49.80
35299;DHT22;21415;48.054;16.646;2022-09-01T00:52:35;22.60;50.00
35299;DHT22;21415;48.054;16.646;2022-09-01T00:55:14;22.60;50.10
35299;DHT22;21415;48.054;16.646;2022-09-01T00:57:40;22.60;50.20
35299;DHT22;21415;48.054;16.646;2022-09-01T01:00:15;22.50;50.00
35299;DHT22;21415;48.054;16.646;2022-09-01T01:02:41;22.60;50.30
35299;DHT22;21415;48.054;16.646;2022-09-01T01:05:08;22.60;50.00
35299;DHT22;21415;48.054;16.646;2022-09-01T01:07:34;22.50;50.00
35299;DHT22;21415;48.054;16.646;2022-09-01T01:10:05;22.50;50.10
35299;DHT22;21415;48.054;16.646;2022-09-01T01:12:32;22.50;50.20
35299;DHT22;21415;48.054;16.646;2022-09-01T01:15:00;22.50;50.10
35299;DHT22;21415;48.054;16.646;2022-09-01T01:17:28;22.50;50.20
35299;DHT22;21415;48.054;16.646;2022-09-01T01:19:55;22.50;50.10
35299;DHT22;21415;48.054;16.646;2022-09-01T01:22:45;22.50;50.20
35299;DHT22;21415;48.054;16.646;2022-09-01T01:28:21;22.50;50.10
35299;DHT22;21415;48.054;16.646;2022-09-01T01:30:57;22.50;50.20
35299;DHT22;21415;48.054;16.646;2022-09-01T01:33:35;22.50;50.40
35299;DHT22;21415;48.054;16.646;2022-09-01T01:36:08;22.40;50.40
35299;DHT22;21415;48.054;16.646;2022-09-01T01:38:38;22.40;50.30
35299;DHT22;21415;48.054;16.646;2022-09-01T01:41:06;22.40;50.10
35299;DHT22;21415;48.054;16.646;2022-09-01T01:43:32;22.40;50.20
35299;DHT22;21415;48.054;16.646;2022-09-01T01:45:58;22.40;50.10
35299;DHT22;21415;48.054;16.646;2022-09-01T01:48:30;22.40;50.20
35299;DHT22;21415;48.054;16.646;2022-09-01T01:51:00;22.40;50.20
35299;DHT22;21415;48.054;16.646;2022-09-01T01:53:27;22.30;50.30
35299;DHT22;21415;48.054;16.646;2022-09-01T01:55:53;22.30;50.30
35299;DHT22;21415;48.054;16.646;2022-09-01T01:58:22;22.30;50.30
35299;DHT22;21415;48.054;16.646;2022-09-01T02:00:50;22.30;50.30
35299;DHT22;21415;48.054;16.646;2022-09-01T02:03:18;22.30;50.40
35299;DHT22;21415;48.054;16.646;2022-09-01T02:05:47;22.30;50.40
35299;DHT22;21415;48.054;16.646;2022-09-01T02:08:15;22.30;50.40
35299;DHT22;21415;48.054;16.646;2022-09-01T02:10:44;22.30;50.40
35299;DHT22;21415;48.054;16.646;2022-09-01T02:13:15;22.30;50.40
35299;DHT22;21415;48.054;16.646;2022-09-01T02:15:47;22.30;50.50
35299;DHT22;21415;48.054;16.646;2022-09-01T02:18:35;22.30;50.40
35299;DHT22;21415;48.054;16.646;2022-09-01T02:21:03;22.30;50.50
35299;DHT22;21415;48.054;16.646;2022-09-01T02:23:37;22.30;50.40
35299;DHT22;21415;48.054;16.646;2022-09-01T02:26:04;22.30;50.30
35299;DHT22;21415;48.054;16.646;2022-09-01T02:28:34;22.30;50.20
35299;DHT22;21415;48.054;16.646;2022-09-01T02:31:04;22.30;50.30
35299;DHT22;21415;48.054;16.646;2022-09-01T02:33:31;22.30;50.30
35299;DHT22;21415;48.054;16.646;2022-09-01T02:35:59;22.30;50.20
35299;DHT22;21415;48.054;16.646;2022-09-01T02:38:26;22.30;50.20
35299;DHT22;21415;48.054;16.646;2022-09-01T02:40:59;22.30;50.30
35299;DHT22;21415;48.054;16.646;2022-09-01T02:43:28;22.20;50.30
35299;DHT22;21415;48.054;16.646;2022-09-01T02:45:56;22.20;50.20
35299;DHT22;21415;48.054;16.646;2022-09-01T02:48:30;22.20;50.40
35299;DHT22;21415;48.054;16.646;2022-09-01T02:51:05;22.20;50.40
35299;DHT22;21415;48.054;16.646;2022-09-01T02:53:33;22.20;50.40
35299;DHT22;21415;48.054;16.646;2022-09-01T02:56:03;22.20;50.40
35299;DHT22;21415;48.054;16.646;2022-09-01T02:58:35;22.20;50.50
35299;DHT22;21415;48.054;16.646;2022-09-01T03:01:28;22.20;50.50
35299;DHT22;21415;48.054;16.646;2022-09-01T03:04:02;22.20;50.90
35299;DHT22;21415;48.054;16.646;2022-09-01T03:06:30;22.20;50.80
35299;DHT22;21415;48.054;16.646;2022-09-01T03:08:59;22.20;50.60
35299;DHT22;21415;48.054;16.646;2022-09-01T03:11:27;22.20;50.40
35299;DHT22;21415;48.054;16.646;2022-09-01T03:13:54;22.20;50.40
35299;DHT22;21415;48.054;16.646;2022-09-01T03:16:19;22.30;50.30
35299;DHT22;21415;48.054;16.646;2022-09-01T03:18:47;22.20;50.20
35299;DHT22;21415;48.054;16.646;2022-09-01T03:21:14;22.20;50.20
35299;DHT22;21415;48.054;16.646;2022-09-01T03:23:44;22.20;50.20
35299;DHT22;21415;48.054;16.646;2022-09-01T03:26:12;22.20;50.30
35299;DHT22;21415;48.054;16.646;2022-09-01T03:28:39;22.20;50.20
35299;DHT22;21415;48.054;16.646;2022-09-01T03:31:05;22.20;50.20
35299;DHT22;21415;48.054;16.646;2022-09-01T03:33:32;22.10;50.20
35299;DHT22;21415;48.054;16.646;2022-09-01T03:35:59;22.20;50.20
35299;DHT22;21415;48.054;16.646;2022-09-01T03:38:25;22.10;50.10
35299;DHT22;21415;48.054;16.646;2022-09-01T03:40:54;22.10;50.30
35299;DHT22;21415;48.054;16.646;2022-09-01T03:43:30;22.10;50.30
35299;DHT22;21415;48.054;16.646;2022-09-01T03:45:57;22.10;50.40
35299;DHT22;21415;48.054;16.646;2022-09-01T03:48:27;22.00;50.30
35299;DHT22;21415;48.054;16.646;2022-09-01T03:50:56;22.10;50.30
35299;DHT22;21415;48.054;16.646;2022-09-01T03:53:29;22.10;50.40
35299;DHT22;21415;48.054;16.646;2022-09-01T03:55:56;22.10;50.30
35299;DHT22;21415;48.054;16.646;2022-09-01T03:58:23;22.10;50.20
35299;DHT22;21415;48.054;16.646;2022-09-01T04:00:55;22.10;50.30
35299;DHT22;21415;48.054;16.646;2022-09-01T04:03:24;22.10;50.40
35299;DHT22;21415;48.054;16.646;2022-09-01T04:05:52;22.10;50.30
35299;DHT22;21415;48.054;16.646;2022-09-01T04:08:20;22.10;50.10
35299;DHT22;21415;48.054;16.646;2022-09-01T04:10:49;22.20;50.10
35299;DHT22;21415;48.054;16.646;2022-09-01T04:13:24;22.10;50.70
35299;DHT22;21415;48.054;16.646;2022-09-01T04:15:56;22.20;50.20
35299;DHT22;21415;48.054;16.646;2022-09-01T04:18:25;22.30;50.20
35299;DHT22;21415;48.054;16.646;2022-09-01T04:23:17;22.20;50.00
35299;DHT22;21415;48.054;16.646;2022-09-01T04:25:54;22.20;49.90
35299;DHT22;21415;48.054;16.646;2022-09-01T04:28:23;22.20;49.70
35299;DHT22;21415;48.054;16.646;2022-09-01T04:30:55;22.20;49.90
35299;DHT22;21415;48.054;16.646;2022-09-01T04:33:24;22.20;49.90
35299;DHT22;21415;48.054;16.646;2022-09-01T04:35:51;22.10;50.00
35299;DHT22;21415;48.054;16.646;2022-09-01T04:38:20;22.00;49.90
35299;DHT22;21415;48.054;16.646;2022-09-01T04:40:47;22.10;50.00
35299;DHT22;21415;48.054;16.646;2022-09-01T04:43:15;22.10;50.10
35299;DHT22;21415;48.054;16.646;2022-09-01T04:45:41;22.10;50.00
35299;DHT22;21415;48.054;16.646;2022-09-01T04:48:07;22.10;50.00
35299;DHT22;21415;48.054;16.646;2022-09-01T04:50:39;22.20;50.10
35299;DHT22;21415;48.054;16.646;2022-09-01T04:53:14;22.00;50.10
35299;DHT22;21415;48.054;16.646;2022-09-01T04:55:45;22.00;50.20
35299;DHT22;21415;48.054;16.646;2022-09-01T04:58:17;22.00;50.30
35299;DHT22;21415;48.054;16.646;2022-09-01T05:00:47;22.10;50.60
35299;DHT22;21415;48.054;16.646;2022-09-01T05:03:16;22.10;50.50
35299;DHT22;21415;48.054;16.646;2022-09-01T05:06:15;22.10;50.50
35299;DHT22;21415;48.054;16.646;2022-09-01T05:08:47;22.20;50.50
35299;DHT22;21415;48.054;16.646;2022-09-01T05:11:26;22.20;50.40
35299;DHT22;21415;48.054;16.646;2022-09-01T05:14:01;22.30;50.40
35299;DHT22;21415;48.054;16.646;2022-09-01T05:16:30;22.30;50.30
35299;DHT22;21415;48.054;16.646;2022-09-01T05:18:58;22.30;50.20
35299;DHT22;21415;48.054;16.646;2022-09-01T05:21:29;22.30;50.10
35299;DHT22;21415;48.054;16.646;2022-09-01T05:23:59;22.40;50.00
35299;DHT22;21415;48.054;16.646;2022-09-01T05:26:29;22.40;50.20
35299;DHT22;21415;48.054;16.646;2022-09-01T05:29:01;22.40;50.00
35299;DHT22;21415;48.054;16.646;2022-09-01T05:31:29;22.50;49.90
35299;DHT22;21415;48.054;16.646;2022-09-01T05:34:00;22.50;49.70
35299;DHT22;21415;48.054;16.646;2022-09-01T05:36:27;22.50;49.60
35299;DHT22;21415;48.054;16.646;2022-09-01T05:38:58;22.50;49.30
35299;DHT22;21415;48.054;16.646;2022-09-01T05:41:24;22.50;49.20
35299;DHT22;21415;48.054;16.646;2022-09-01T05:43:50;22.60;49.70
35299;DHT22;21415;48.054;16.646;2022-09-01T05:46:20;22.60;49.10
35299;DHT22;21415;48.054;16.646;2022-09-01T05:48:47;22.60;49.00
35299;DHT22;21415;48.054;16.646;2022-09-01T05:51:17;22.60;49.00
35299;DHT22;21415;48.054;16.646;2022-09-01T05:53:45;22.60;49.10
35299;DHT22;21415;48.054;16.646;2022-09-01T05:56:12;22.60;49.00
35299;DHT22;21415;48.054;16.646;2022-09-01T05:58:40;22.60;48.90
35299;DHT22;21415;48.054;16.646;2022-09-01T06:01:09;22.70;49.10
35299;DHT22;21415;48.054;16.646;2022-09-01T06:03:42;22.70;48.90
35299;DHT22;21415;48.054;16.646;2022-09-01T06:06:10;22.70;48.70
35299;DHT22;21415;48.054;16.646;2022-09-01T06:08:38;22.70;48.70
35299;DHT22;21415;48.054;16.646;2022-09-01T06:11:08;22.80;48.80
35299;DHT22;21415;48.054;16.646;2022-09-01T06:13:38;22.80;48.80
35299;DHT22;21415;48.054;16.646;2022-09-01T06:16:10;22.90;48.90
35299;DHT22;21415;48.054;16.646;2022-09-01T06:18:38;22.90;48.50
35299;DHT22;21415;48.054;16.646;2022-09-01T06:21:09;23.00;48.50
35299;DHT22;21415;48.054;16.646;2022-09-01T06:23:41;23.10;48.60
35299;DHT22;21415;48.054;16.646;2022-09-01T06:28:44;23.20;47.60
35299;DHT22;21415;48.054;16.646;2022-09-01T06:31:11;23.20;47.70
35299;DHT22;21415;48.054;16.646;2022-09-01T06:33:38;23.30;48.10
35299;DHT22;21415;48.054;16.646;2022-09-01T06:36:05;23.20;47.50
35299;DHT22;21415;48.054;16.646;2022-09-01T06:38:32;23.20;47.60
35299;DHT22;21415;48.054;16.646;2022-09-01T06:41:04;23.30;47.30
35299;DHT22;21415;48.054;16.646;2022-09-01T06:43:30;23.30;47.50
35299;DHT22;21415;48.054;16.646;2022-09-01T06:46:00;23.30;47.30
35299;DHT22;21415;48.054;16.646;2022-09-01T06:48:29;23.40;47.00
35299;DHT22;21415;48.054;16.646;2022-09-01T06:51:01;23.40;46.80
35299;DHT22;21415;48.054;16.646;2022-09-01T06:53:32;23.40;46.90
35299;DHT22;21415;48.054;16.646;2022-09-01T06:56:00;23.40;46.60
35299;DHT22;21415;48.054;16.646;2022-09-01T06:58:29;23.40;46.60
35299;DHT22;21415;48.054;16.646;2022-09-01T07:00:55;23.40;46.50
35299;DHT22;21415;48.054;16.646;2022-09-01T07:03:21;23.40;46.40
35299;DHT22;21415;48.054;16.646;2022-09-01T07:06:08;23.50;46.50
35299;DHT22;21415;48.054;16.646;2022-09-01T07:08:56;23.50;46.30
35299;DHT22;21415;48.054;16.646;2022-09-01T07:11:33;23.50;46.20
35299;DHT22;21415;48.054;16.646;2022-09-01T07:14:04;23.50;46.00
35299;DHT22;21415;48.054;16.646;2022-09-01T07:16:36;23.50;46.30
35299;DHT22;21415;48.054;16.646;2022-09-01T07:19:07;23.60;45.70
35299;DHT22;21415;48.054;16.646;2022-09-01T07:21:43;23.60;45.90
35299;DHT22;21415;48.054;16.646;2022-09-01T07:24:12;23.60;45.60
35299;DHT22;21415;48.054;16.646;2022-09-01T07:26:48;23.60;45.50
35299;DHT22;21415;48.054;16.646;2022-09-01T07:29:18;23.70;45.60
35299;DHT22;21415;48.054;16.646;2022-09-01T07:31:44;23.70;45.60
35299;DHT22;21415;48.054;16.646;2022-09-01T07:34:12;23.70;45.60
35299;DHT22;21415;48.054;16.646;2022-09-01T07:36:39;23.70;45.90
35299;DHT22;21415;48.054;16.646;2022-09-01T07:39:08;23.80;45.00
35299;DHT22;21415;48.054;16.646;2022-09-01T07:41:34;23.70;45.30
35299;DHT22;21415;48.054;16.646;2022-09-01T07:44:18;23.90;45.30
35299;DHT22;21415;48.054;16.646;2022-09-01T07:47:04;23.90;45.00
35299;DHT22;21415;48.054;16.646;2022-09-01T07:49:34;24.00;44.80
35299;DHT22;21415;48.054;16.646;2022-09-01T07:52:04;24.00;44.60
35299;DHT22;21415;48.054;16.646;2022-09-01T07:54:30;24.00;44.50
35299;DHT22;21415;48.054;16.646;2022-09-01T07:56:58;24.10;44.30
35299;DHT22;21415;48.054;16.646;2022-09-01T07:59:24;24.10;44.40
35299;DHT22;21415;48.054;16.646;2022-09-01T08:01:59;24.20;44.40
35299;DHT22;21415;48.054;16.646;2022-09-01T08:04:26;24.20;44.30
35299;DHT22;21415;48.054;16.646;2022-09-01T08:06:53;24.20;44.30
35299;DHT22;21415;48.054;16.646;2022-09-01T08:09:20;24.30;44.00
35299;DHT22;21415;48.054;16.646;2022-09-01T08:11:46;24.30;43.90
35299;DHT22;21415;48.054;16.646;2022-09-01T08:14:11;24.40;43.70
35299;DHT22;21415;48.054;16.646;2022-09-01T08:16:37;24.40;43.50
35299;DHT22;21415;48.054;16.646;2022-09-01T08:19:03;24.40;43.30
35299;DHT22;21415;48.054;16.646;2022-09-01T08:21:37;24.40;43.10
35299;DHT22;21415;48.054;16.646;2022-09-01T08:24:19;24.50;42.80
35299;DHT22;21415;48.054;16.646;2022-09-01T08:26:44;24.50;42.70
35299;DHT22;21415;48.054;16.646;2022-09-01T08:29:11;24.50;42.90
35299;DHT22;21415;48.054;16.646;2022-09-01T08:31:40;24.60;42.90
35299;DHT22;21415;48.054;16.646;2022-09-01T08:34:06;24.60;43.00
35299;DHT22;21415;48.054;16.646;2022-09-01T08:36:35;24.60;42.60
35299;DHT22;21415;48.054;16.646;2022-09-01T08:39:04;24.70;42.00
35299;DHT22;21415;48.054;16.646;2022-09-01T08:41:51;24.70;42.20
35299;DHT22;21415;48.054;16.646;2022-09-01T08:44:58;24.70;41.80
35299;DHT22;21415;48.054;16.646;2022-09-01T08:47:29;24.70;41.80
35299;DHT22;21415;48.054;16.646;2022-09-01T08:49:57;24.80;42.10
35299;DHT22;21415;48.054;16.646;2022-09-01T08:55:20;24.90;41.20
35299;DHT22;21415;48.054;16.646;2022-09-01T08:57:51;24.90;41.20
35299;DHT22;21415;48.054;16.646;2022-09-01T09:00:25;25.00;41.30
35299;DHT22;21415;48.054;16.646;2022-09-01T09:11:07;25.10;40.40
35299;DHT22;21415;48.054;16.646;2022-09-01T09:21:24;25.30;40.00
35299;DHT22;21415;48.054;16.646;2022-09-01T09:26:47;25.30;39.80
35299;DHT22;21415;48.054;16.646;2022-09-01T09:29:13;25.30;39.60
35299;DHT22;21415;48.054;16.646;2022-09-01T09:31:40;25.30;40.30
35299;DHT22;21415;48.054;16.646;2022-09-01T09:37:00;25.40;40.10
35299;DHT22;21415;48.054;16.646;2022-09-01T09:39:26;25.40;39.60
35299;DHT22;21415;48.054;16.646;2022-09-01T09:42:12;25.40;39.60
35299;DHT22;21415;48.054;16.646;2022-09-01T09:44:44;25.40;39.60
35299;DHT22;21415;48.054;16.646;2022-09-01T09:47:34;25.50;39.50
35299;DHT22;21415;48.054;16.646;2022-09-01T09:50:12;25.50;39.40
35299;DHT22;21415;48.054;16.646;2022-09-01T09:52:38;25.60;39.10
35299;DHT22;21415;48.054;16.646;2022-09-01T09:55:17;25.60;39.20
35299;DHT22;21415;48.054;16.646;2022-09-01T09:57:43;25.60;39.30
35299;DHT22;21415;48.054;16.646;2022-09-01T10:00:20;25.60;39.10
35299;DHT22;21415;48.054;16.646;2022-09-01T10:05:44;25.70;39.10
35299;DHT22;21415;48.054;16.646;2022-09-01T10:08:40;25.80;39.70
35299;DHT22;21415;48.054;16.646;2022-09-01T10:11:27;25.80;39.20
35299;DHT22;21415;48.054;16.646;2022-09-01T10:13:54;25.80;38.90
35299;DHT22;21415;48.054;16.646;2022-09-01T10:16:27;25.90;38.70
35299;DHT22;21415;48.054;16.646;2022-09-01T10:18:57;25.90;38.20
35299;DHT22;21415;48.054;16.646;2022-09-01T10:21:42;25.90;38.50
35299;DHT22;21415;48.054;16.646;2022-09-01T10:24:34;26.00;38.30
35299;DHT22;21415;48.054;16.646;2022-09-01T10:27:06;26.00;37.60
35299;DHT22;21415;48.054;16.646;2022-09-01T10:35:47;26.10;36.80
35299;DHT22;21415;48.054;16.646;2022-09-01T10:38:23;26.10;37.60
35299;DHT22;21415;48.054;16.646;2022-09-01T10:40:52;26.20;37.30
35299;DHT22;21415;48.054;16.646;2022-09-01T10:43:44;26.20;37.80
35299;DHT22;21415;48.054;16.646;2022-09-01T10:48:51;26.30;36.30
35299;DHT22;21415;48.054;16.646;2022-09-01T10:53:48;26.40;36.60
35299;DHT22;21415;48.054;16.646;2022-09-01T11:01:09;26.40;36.20
35299;DHT22;21415;48.054;16.646;2022-09-01T11:14:58;26.60;35.90
35299;DHT22;21415;48.054;16.646;2022-09-01T11:17:36;26.60;36.10
35299;DHT22;21415;48.054;16.646;2022-09-01T11:20:28;26.70;35.50
35299;DHT22;21415;48.054;16.646;2022-09-01T11:23:04;26.70;35.20
35299;DHT22;21415;48.054;16.646;2022-09-01T11:36:19;26.90;35.80
35299;DHT22;21415;48.054;16.646;2022-09-01T11:38:55;26.90;35.40
35299;DHT22;21415;48.054;16.646;2022-09-01T11:41:28;26.90;35.50
35299;DHT22;21415;48.054;16.646;2022-09-01T11:44:00;27.00;35.20
35299;DHT22;21415;48.054;16.646;2022-09-01T11:46:32;27.10;35.90
35299;DHT22;21415;48.054;16.646;2022-09-01T11:49:06;27.10;35.30
35299;DHT22;21415;48.054;16.646;2022-09-01T11:51:43;27.30;35.30
35299;DHT22;21415;48.054;16.646;2022-09-01T11:54:10;27.30;34.40
35299;DHT22;21415;48.054;16.646;2022-09-01T11:56:37;27.30;34.90
35299;DHT22;21415;48.054;16.646;2022-09-01T11:59:03;27.40;35.10
35299;DHT22;21415;48.054;16.646;2022-09-01T12:04:21;27.40;35.00
35299;DHT22;21415;48.054;16.646;2022-09-01T12:06:59;27.30;34.60
35299;DHT22;21415;48.054;16.646;2022-09-01T12:12:06;27.30;34.20
35299;DHT22;21415;48.054;16.646;2022-09-01T12:14:35;27.30;34.50
35299;DHT22;21415;48.054;16.646;2022-09-01T12:17:03;27.20;34.40
35299;DHT22;21415;48.054;16.646;2022-09-01T12:19:32;27.30;34.40
35299;DHT22;21415;48.054;16.646;2022-09-01T12:22:02;27.30;34.00
35299;DHT22;21415;48.054;16.646;2022-09-01T12:24:33;27.30;33.70
35299;DHT22;21415;48.054;16.646;2022-09-01T12:26:59;27.40;33.80
35299;DHT22;21415;48.054;16.646;2022-09-01T12:29:26;27.50;34.10
35299;DHT22;21415;48.054;16.646;2022-09-01T12:31:53;27.50;33.90
35299;DHT22;21415;48.054;16.646;2022-09-01T12:34:41;27.60;33.80
35299;DHT22;21415;48.054;16.646;2022-09-01T12:39:48;27.70;33.30
35299;DHT22;21415;48.054;16.646;2022-09-01T12:52:33;27.70;32.90
35299;DHT22;21415;48.054;16.646;2022-09-01T12:57:38;27.70;32.50
35299;DHT22;21415;48.054;16.646;2022-09-01T13:02:39;27.70;32.00
35299;DHT22;21415;48.054;16.646;2022-09-01T13:05:25;27.70;32.50
35299;DHT22;21415;48.054;16.646;2022-09-01T13:07:53;27.70;32.10
35299;DHT22;21415;48.054;16.646;2022-09-01T13:10:20;27.70;32.40
35299;DHT22;21415;48.054;16.646;2022-09-01T13:12:46;27.70;32.40
35299;DHT22;21415;48.054;16.646;2022-09-01T13:15:12;27.70;32.30
35299;DHT22;21415;48.054;16.646;2022-09-01T13:17:38;27.80;32.90
35299;DHT22;21415;48.054;16.646;2022-09-01T13:20:08;27.80;32.40
35299;DHT22;21415;48.054;16.646;2022-09-01T13:22:34;27.80;32.20
35299;DHT22;21415;48.054;16.646;2022-09-01T13:25:01;27.90;32.30
35299;DHT22;21415;48.054;16.646;2022-09-01T13:27:26;27.90;32.00
35299;DHT22;21415;48.054;16.646;2022-09-01T13:29:52;27.90;32.00
35299;DHT22;21415;48.054;16.646;2022-09-01T13:32:20;27.90;32.00
35299;DHT22;21415;48.054;16.646;2022-09-01T13:34:48;28.00;31.90
35299;DHT22;21415;48.054;16.646;2022-09-01T13:37:14;28.00;31.80
35299;DHT22;21415;48.054;16.646;2022-09-01T13:39:39;28.00;31.70
35299;DHT22;21415;48.054;16.646;2022-09-01T13:42:05;28.00;31.70
35299;DHT22;21415;48.054;16.646;2022-09-01T13:44:32;28.00;31.40
35299;DHT22;21415;48.054;16.646;2022-09-01T13:46:58;28.00;32.10
35299;DHT22;21415;48.054;16.646;2022-09-01T13:49:24;28.00;31.80
35299;DHT22;21415;48.054;16.646;2022-09-01T13:51:51;28.00;31.90
35299;DHT22;21415;48.054;16.646;2022-09-01T13:54:16;28.00;31.70
35299;DHT22;21415;48.054;16.646;2022-09-01T13:56:42;28.00;31.40
35299;DHT22;21415;48.054;16.646;2022-09-01T13:59:08;28.00;31.30
35299;DHT22;21415;48.054;16.646;2022-09-01T14:01:34;27.90;31.20
35299;DHT22;21415;48.054;16.646;2022-09-01T14:04:00;27.90;31.20
35299;DHT22;21415;48.054;16.646;2022-09-01T14:06:29;27.90;31.00
35299;DHT22;21415;48.054;16.646;2022-09-01T14:08:54;27.90;31.10
35299;DHT22;21415;48.054;16.646;2022-09-01T14:11:22;27.90;31.80
35299;DHT22;21415;48.054;16.646;2022-09-01T14:13:49;27.90;31.30
35299;DHT22;21415;48.054;16.646;2022-09-01T14:16:14;27.90;31.30
35299;DHT22;21415;48.054;16.646;2022-09-01T14:18:41;27.90;31.40
35299;DHT22;21415;48.054;16.646;2022-09-01T14:21:14;27.90;31.50
35299;DHT22;21415;48.054;16.646;2022-09-01T14:23:41;27.90;31.30
35299;DHT22;21415;48.054;16.646;2022-09-01T14:26:09;27.90;31.60
35299;DHT22;21415;48.054;16.646;2022-09-01T14:28:37;27.90;31.30
35299;DHT22;21415;48.054;16.646;2022-09-01T14:31:07;27.90;31.20
35299;DHT22;21415;48.054;16.646;2022-09-01T14:33:34;27.90;31.00
35299;DHT22;21415;48.054;16.646;2022-09-01T14:36:01;27.90;31.30
35299;DHT22;21415;48.054;16.646;2022-09-01T14:38:28;28.00;31.30
35299;DHT22;21415;48.054;16.646;2022-09-01T14:40:54;28.00;31.30
35299;DHT22;21415;48.054;16.646;2022-09-01T14:43:20;28.00;31.20
35299;DHT22;21415;48.054;16.646;2022-09-01T14:45:46;28.00;31.30
35299;DHT22;21415;48.054;16.646;2022-09-01T14:48:14;28.00;31.20
35299;DHT22;21415;48.054;16.646;2022-09-01T14:50:43;28.10;31.00
35299;DHT22;21415;48.054;16.646;2022-09-01T14:53:10;28.10;31.10
35299;DHT22;21415;48.054;16.646;2022-09-01T14:55:36;28.10;31.00
35299;DHT22;21415;48.054;16.646;2022-09-01T14:58:02;28.10;30.80
35299;DHT22;21415;48.054;16.646;2022-09-01T15:00:29;28.10;31.00
35299;DHT22;21415;48.054;16.646;2022-09-01T15:02:57;28.00;30.90
35299;DHT22;21415;48.054;16.646;2022-09-01T15:05:24;28.00;30.90
35299;DHT22;21415;48.054;16.646;2022-09-01T15:07:50;28.00;31.10
35299;DHT22;21415;48.054;16.646;2022-09-01T15:10:19;28.00;30.80
35299;DHT22;21415;48.054;16.646;2022-09-01T15:12:46;27.90;30.70
35299;DHT22;21415;48.054;16.646;2022-09-01T15:15:14;27.90;30.70
35299;DHT22;21415;48.054;16.646;2022-09-01T15:17:40;27.90;30.90
35299;DHT22;21415;48.054;16.646;2022-09-01T15:20:07;27.80;30.70
35299;DHT22;21415;48.054;16.646;2022-09-01T15:22:51;27.80;30.90
35299;DHT22;21415;48.054;16.646;2022-09-01T15:25:17;27.80;31.00
35299;DHT22;21415;48.054;16.646;2022-09-01T15:27:43;27.80;30.90
35299;DHT22;21415;48.054;16.646;2022-09-01T15:30:10;27.80;30.80
35299;DHT22;21415;48.054;16.646;2022-09-01T15:32:45;27.80;30.80
35299;DHT22;21415;48.054;16.646;2022-09-01T15:35:12;27.80;30.60
35299;DHT22;21415;48.054;16.646;2022-09-01T15:37:38;27.80;30.50
35299;DHT22;21415;48.054;16.646;2022-09-01T15:40:05;27.80;30.50
35299;DHT22;21415;48.054;16.646;2022-09-01T15:42:34;27.80;30.70
35299;DHT22;21415;48.054;16.646;2022-09-01T15:45:01;27.70;30.40
35299;DHT22;21415;48.054;16.646;2022-09-01T15:47:28;27.70;30.60
35299;DHT22;21415;48.054;16.646;2022-09-01T15:49:54;27.70;30.30
35299;DHT22;21415;48.054;16.646;2022-09-01T15:52:20;27.70;30.40
35299;DHT22;21415;48.054;16.646;2022-09-01T15:54:46;27.60;30.40
35299;DHT22;21415;48.054;16.646;2022-09-01T15:57:12;27.60;30.50
35299;DHT22;21415;48.054;16.646;2022-09-01T15:59:37;27.60;30.60
35299;DHT22;21415;48.054;16.646;2022-09-01T16:02:04;27.60;30.50
35299;DHT22;21415;48.054;16.646;2022-09-01T16:04:32;27.50;30.50
35299;DHT22;21415;48.054;16.646;2022-09-01T16:06:58;27.50;30.50
35299;DHT22;21415;48.054;16.646;2022-09-01T16:09:25;27.50;30.30
35299;DHT22;21415;48.054;16.646;2022-09-01T16:11:52;27.40;30.20
35299;DHT22;21415;48.054;16.646;2022-09-01T16:14:18;27.40;30.20
35299;DHT22;21415;48.054;16.646;2022-09-01T16:16:52;27.40;30.10
35299;DHT22;21415;48.054;16.646;2022-09-01T16:24:43;27.20;30.00
35299;DHT22;21415;48.054;16.646;2022-09-01T16:27:14;27.10;30.10
35299;DHT22;21415;48.054;16.646;2022-09-01T16:32:14;27.00;30.10
35299;DHT22;21415;48.054;16.646;2022-09-01T16:34:43;26.90;30.30
35299;DHT22;21415;48.054;16.646;2022-09-01T16:45:31;26.70;30.00
35299;DHT22;21415;48.054;16.646;2022-09-01T16:55:32;26.50;30.10
35299;DHT22;21415;48.054;16.646;2022-09-01T16:58:18;26.40;30.80
35299;DHT22;21415;48.054;16.646;2022-09-01T17:03:40;26.40;30.00
35299;DHT22;21415;48.054;16.646;2022-09-01T17:06:14;26.40;30.00
35299;DHT22;21415;48.054;16.646;2022-09-01T17:08:49;26.40;30.50
35299;DHT22;21415;48.054;16.646;2022-09-01T17:11:34;26.30;29.80
35299;DHT22;21415;48.054;16.646;2022-09-01T17:14:06;26.30;29.80
35299;DHT22;21415;48.054;16.646;2022-09-01T17:16:38;26.20;29.90
35299;DHT22;21415;48.054;16.646;2022-09-01T17:19:09;26.20;29.80
35299;DHT22;21415;48.054;16.646;2022-09-01T17:24:57;26.10;29.90
35299;DHT22;21415;48.054;16.646;2022-09-01T17:27:25;26.10;29.70
35299;DHT22;21415;48.054;16.646;2022-09-01T17:29:54;26.10;29.90
35299;DHT22;21415;48.054;16.646;2022-09-01T17:41:27;26.00;29.90
35299;DHT22;21415;48.054;16.646;2022-09-01T17:44:11;25.90;29.90
35299;DHT22;21415;48.054;16.646;2022-09-01T17:47:11;25.90;30.00
35299;DHT22;21415;48.054;16.646;2022-09-01T17:52:22;25.90;30.20